createdAt,value
2023-04-24T00:02:51.522Z,100122.41
2023-04-24T00:05:24.616Z,100123.37
2023-04-24T00:08:03.095Z,100123.44
2023-04-24T00:10:40.833Z,100126.41
2023-04-24T00:13:33.887Z,100126.84
2023-04-24T00:17:03.750Z,100126.56
2023-04-24T00:19:43.463Z,100127.41
2023-04-24T00:22:48.404Z,100121.11
2023-04-24T00:25:54.492Z,100123.77
2023-04-24T00:28:58.244Z,100127.47
2023-04-24T00:31:42.629Z,100126.75
2023-04-24T00:34:51.322Z,100128.31
2023-04-24T00:37:56.734Z,100128.95
2023-04-24T00:40:34.376Z,100128.23
2023-04-24T00:43:10.397Z,100131.05
2023-04-24T00:45:45.904Z,100128.98
2023-04-24T00:49:24.223Z,100128.44
2023-04-24T00:51:57.358Z,100122.79
2023-04-24T00:55:18.380Z,100123.92
2023-04-24T00:58:16.798Z,100121.70
2023-04-24T01:00:54.196Z,100124.84
2023-04-24T01:03:46.663Z,100120.24
2023-04-24T01:06:29.614Z,100120.02
2023-04-24T01:09:09.167Z,100122.00
2023-04-24T01:11:48.326Z,100124.52
2023-04-24T01:14:37.296Z,100122.95
2023-04-24T01:17:40.601Z,100124.05
2023-04-24T01:20:17.260Z,100125.36
2023-04-24T01:23:12.813Z,100128.16
2023-04-24T01:25:49.917Z,100133.41
2023-04-24T01:28:37.167Z,100130.15
2023-04-24T01:31:30.566Z,100127.65
2023-04-24T01:34:04.344Z,100125.23
2023-04-24T01:36:49.699Z,100122.14
2023-04-24T01:39:22.552Z,100122.98
2023-04-24T01:42:21.494Z,100115.54
2023-04-24T01:45:23.992Z,100116.46
2023-04-24T01:48:44.524Z,100108.64
2023-04-24T01:51:22.390Z,100109.52
2023-04-24T01:54:18.843Z,100106.04
2023-04-24T01:57:55.222Z,100104.39
2023-04-24T02:00:55.912Z,100107.74
2023-04-24T02:03:33.576Z,100105.89
2023-04-24T02:06:05.960Z,100104.70
2023-04-24T02:08:44.297Z,100103.90
2023-04-24T02:11:36.487Z,100104.17
2023-04-24T02:14:13.988Z,100106.17
2023-04-24T02:17:09.075Z,100108.43
2023-04-24T02:19:45.468Z,100111.05
2023-04-24T02:22:26.473Z,100105.46
2023-04-24T02:24:55.393Z,100103.25
2023-04-24T02:27:50.306Z,100104.48
2023-04-24T02:30:34.208Z,100102.19
2023-04-24T02:33:23.930Z,100100.30
2023-04-24T02:36:15.459Z,100106.47
2023-04-24T02:39:12.363Z,100106.08
2023-04-24T02:41:49.739Z,100104.27
2023-04-24T02:44:48.730Z,100104.58
2023-04-24T02:47:25.464Z,100104.36
2023-04-24T02:49:56.663Z,100107.75
2023-04-24T02:52:40.679Z,100109.17
2023-04-24T02:55:12.418Z,100107.47
2023-04-24T02:58:14.004Z,100105.88
2023-04-24T03:01:11.598Z,100104.79
2023-04-24T03:04:03.295Z,100106.61
2023-04-24T03:06:49.024Z,100110.61
2023-04-24T03:09:47.722Z,100109.74
2023-04-24T03:12:29.872Z,100111.27
2023-04-24T03:15:32.503Z,100112.49
2023-04-24T03:18:03.258Z,100119.10
2023-04-24T03:21:24.955Z,100114.91
2023-04-24T03:23:57.730Z,100119.44
2023-04-24T03:26:32.071Z,100121.12
2023-04-24T03:29:55.835Z,100121.94
2023-04-24T03:33:00.668Z,100122.17
2023-04-24T03:36:06.150Z,100127.00
2023-04-24T03:38:54.745Z,100127.58
2023-04-24T03:42:02.712Z,100126.59
2023-04-24T03:45:40.464Z,100130.20
2023-04-24T03:48:20.432Z,100128.49
2023-04-24T03:51:01.569Z,100134.98
2023-04-24T03:53:43.167Z,100132.55
2023-04-24T03:56:16.910Z,100137.38
2023-04-24T03:59:00.506Z,100136.46
2023-04-24T04:02:26.374Z,100138.39
2023-04-24T04:05:08.262Z,100140.56
2023-04-24T04:08:04.999Z,100139.63
2023-04-24T04:11:49.277Z,100145.55
2023-04-24T04:15:01.608Z,100148.27
2023-04-24T04:18:31.079Z,100146.32
2023-04-24T04:24:38.759Z,100145.54
2023-04-24T04:27:26.518Z,100144.23
2023-04-24T04:30:55.894Z,100142.85
2023-04-24T04:34:55.302Z,100141.05
2023-04-24T04:37:39.502Z,100130.50
2023-04-24T04:40:57.502Z,100137.19
2023-04-24T04:43:30.911Z,100138.05
2023-04-24T04:47:26.156Z,100137.98
2023-04-24T04:50:17.351Z,100137.52
2023-04-24T04:53:18.839Z,100136.59
2023-04-24T05:04:21.881Z,100136.18
2023-04-24T05:07:16.182Z,100134.52
2023-04-24T05:10:11.665Z,100137.05
2023-04-24T05:13:36.216Z,100135.17
2023-04-24T05:20:34.135Z,100131.80
2023-04-24T05:23:37.550Z,100130.25
2023-04-24T05:27:02.467Z,100129.80
2023-04-24T05:38:28.477Z,100123.61
2023-04-24T05:45:09.855Z,100120.30
2023-04-24T09:46:00.135Z,100058.54
2023-04-24T09:48:48.388Z,100062.85
2023-04-24T09:51:56.034Z,100063.70
2023-04-24T09:58:51.227Z,100062.72
2023-04-24T10:02:47.241Z,100061.06
2023-04-24T10:05:51.460Z,100062.68
2023-04-24T10:13:04.222Z,100058.06
2023-04-24T10:16:35.895Z,100057.84
2023-04-24T10:24:11.264Z,100063.23
2023-04-24T10:28:19.582Z,100059.42
2023-04-24T10:31:58.266Z,100050.67
2023-04-24T10:35:40.462Z,100047.17
2023-04-24T10:39:46.874Z,100041.82
2023-04-24T10:42:55.754Z,100034.23
2023-04-24T10:45:42.395Z,100012.36
2023-04-24T10:49:11.121Z,100023.61
2023-04-24T10:52:31.187Z,100027.09
2023-04-24T11:00:08.538Z,100018.23
2023-04-24T11:12:26.173Z,100002.23
2023-04-24T11:16:16.971Z,99999.73
2023-04-24T11:25:04.124Z,99985.69
2023-04-24T11:28:15.486Z,99980.23
2023-04-24T11:31:38.734Z,99978.29
2023-04-24T11:34:39.187Z,99976.11
2023-04-24T11:37:13.790Z,99973.61
2023-04-24T11:44:20.350Z,99968.38
2023-04-24T11:47:18.039Z,99969.94
2023-04-24T11:53:35.508Z,99964.13
2023-04-24T11:56:21.273Z,99961.91
2023-04-24T11:59:13.446Z,99958.52
2023-04-24T12:02:47.798Z,99962.77
2023-04-24T12:05:52.966Z,99955.57
2023-04-24T12:09:18.596Z,99952.05
2023-04-24T12:20:42.477Z,99936.14
2023-04-24T12:33:40.081Z,99937.61
2023-04-24T12:36:46.895Z,99928.91
2023-04-24T12:40:03.688Z,99928.30
2023-04-24T12:43:19.059Z,99930.13
2023-04-24T12:47:15.906Z,99925.30
2023-04-24T12:51:13.630Z,99916.02
2023-04-24T12:58:18.070Z,99900.80
2023-04-24T13:09:42.426Z,99895.48
2023-04-24T13:13:08.119Z,99892.71
2023-04-24T13:16:22.759Z,99891.73
2023-04-24T13:19:28.701Z,99894.05
2023-04-24T13:22:21.634Z,99888.63
2023-04-24T13:42:43.120Z,99871.23
2023-04-24T13:50:33.008Z,99875.83
2023-04-24T13:54:01.441Z,99874.25
2023-04-24T13:57:36.560Z,99875.34
2023-04-24T14:01:16.766Z,99872.20
2023-04-24T14:04:30.603Z,99867.79
2023-04-24T14:21:07.086Z,99854.52
2023-04-24T14:28:51.146Z,99854.50
2023-04-24T14:32:32.354Z,99858.92
2023-04-24T14:51:53.428Z,99854.27
2023-04-24T14:55:30.074Z,99851.06
2023-04-24T14:59:01.219Z,99847.52
2023-04-24T15:02:15.553Z,99834.98
2023-04-24T15:05:03.320Z,99847.84
2023-04-24T15:12:52.668Z,99852.85
2023-04-24T15:19:57.811Z,99850.05
2023-04-24T15:48:00.616Z,99874.80
2023-04-24T16:04:06.915Z,99865.80
2023-04-24T16:11:57.687Z,99856.99
2023-04-24T16:19:29.554Z,99851.10
2023-04-24T16:30:58.563Z,99841.63
2023-04-24T16:33:50.145Z,99839.54
2023-04-24T16:36:35.170Z,99839.70
2023-04-24T16:39:31.009Z,99841.81
2023-04-24T16:42:41.608Z,99837.74
2023-04-24T16:48:57.538Z,99833.48
2023-04-24T16:51:55.012Z,99837.58
2023-04-24T16:54:57.799Z,99838.52
2023-04-24T16:58:05.709Z,99838.30
2023-04-24T17:01:53.445Z,99834.88
2023-04-24T17:09:07.490Z,99831.63
2023-04-24T17:13:00.632Z,99828.15
2023-04-24T17:24:48.230Z,99839.50
2023-04-24T17:27:41.036Z,99841.03
2023-04-24T17:30:30.882Z,99848.98
2023-04-24T17:38:05.616Z,99853.91
2023-04-24T17:46:46.496Z,99857.16
2023-04-24T17:50:02.886Z,99855.20
2023-04-24T17:54:01.851Z,99859.55
2023-04-24T18:05:06.456Z,99857.27
2023-04-24T18:08:03.529Z,99850.84
2023-04-24T18:15:38.983Z,99851.65
2023-04-24T18:18:31.552Z,99849.46
2023-04-24T18:25:01.183Z,99850.53
2023-04-24T18:27:49.138Z,99854.27
2023-04-24T18:30:37.266Z,99852.04
2023-04-24T18:33:31.577Z,99849.55
2023-04-24T18:46:08.642Z,99856.37
2023-04-24T18:54:58.132Z,99855.20
2023-04-24T19:07:07.389Z,99859.52
2023-04-24T19:14:44.406Z,99864.63
2023-04-24T19:17:57.132Z,99870.52
2023-04-24T19:21:12.754Z,99870.80
2023-04-24T19:24:37.841Z,99877.13
2023-04-24T19:31:19.535Z,99877.69
2023-04-24T19:34:16.754Z,99877.36
2023-04-24T19:37:22.429Z,99872.19
2023-04-24T19:40:36.102Z,99868.48
2023-04-24T19:44:26.052Z,99867.66
2023-04-24T19:47:09.887Z,99871.17
2023-04-24T19:50:44.520Z,99866.62
2023-04-24T20:07:29.163Z,99851.36
2023-04-24T20:10:36.369Z,99842.87
2023-04-24T20:14:44.246Z,99843.02
2023-04-24T20:26:17.127Z,99835.34
2023-04-24T20:33:40.010Z,99838.72
2023-04-24T20:36:37.855Z,99840.15
2023-04-24T20:39:34.685Z,99836.30
2023-04-24T20:47:50.808Z,99835.28
2023-04-24T20:50:42.154Z,99835.33
2023-04-24T20:53:36.711Z,99839.37
2023-04-24T21:02:17.436Z,99834.27
2023-04-24T21:04:55.915Z,99836.61
2023-04-24T21:07:53.432Z,99834.27
2023-04-24T21:10:52.666Z,99833.77
2023-04-24T21:13:33.557Z,99833.23
2023-04-24T21:16:03.914Z,99833.89
2023-04-24T21:23:05.180Z,99834.55
2023-04-24T21:26:24.669Z,99832.49
2023-04-24T21:28:59.796Z,99825.02
2023-04-24T21:31:54.526Z,99829.96
2023-04-24T21:34:55.437Z,99832.86
2023-04-24T21:37:37.419Z,99832.95
2023-04-24T21:41:18.368Z,99832.08
2023-04-24T21:44:00.540Z,99834.00
2023-04-24T21:46:50.101Z,99832.60
2023-04-24T21:49:52.158Z,99827.29
2023-04-24T21:52:49.192Z,99825.38
2023-04-24T21:55:56.303Z,99825.17
2023-04-24T22:03:45.111Z,99821.70
2023-04-24T22:06:41.454Z,99815.43
2023-04-24T22:09:21.043Z,99820.93
2023-04-24T22:16:53.824Z,99819.69
2023-04-24T22:20:02.393Z,99815.61
2023-04-24T22:22:41.858Z,99814.40
2023-04-24T22:25:18.765Z,99809.58
2023-04-24T22:28:16.780Z,99807.38
2023-04-24T22:31:17.847Z,99804.39
2023-04-24T22:34:19.628Z,99787.07
2023-04-24T22:36:59.151Z,99800.77
2023-04-24T22:39:41.360Z,99797.86
2023-04-24T22:42:36.534Z,99797.18
2023-04-24T22:45:15.618Z,99795.33
2023-04-24T22:47:48.980Z,99792.30
2023-04-24T22:51:03.744Z,99789.30
2023-04-24T22:53:43.464Z,99783.02
2023-04-24T22:56:41.244Z,99778.30
2023-04-24T22:59:48.165Z,99775.67
2023-04-24T23:06:01.117Z,99773.35
2023-04-24T23:08:36.927Z,99770.75
2023-04-24T23:11:39.370Z,99769.36
2023-04-24T23:14:48.406Z,99774.73
2023-04-24T23:17:31.213Z,99769.09
2023-04-24T23:20:06.981Z,99767.15
2023-04-24T23:25:27.827Z,99759.88
2023-04-24T23:27:58.587Z,99752.60
2023-04-24T23:30:38.301Z,99759.67
2023-04-24T23:34:02.386Z,99752.81
2023-04-24T23:36:43.134Z,99749.50
2023-04-24T23:39:13.829Z,99749.89
2023-04-24T23:42:03.996Z,99749.22
2023-04-24T23:44:41.009Z,99753.34
2023-04-24T23:47:51.491Z,99755.09
2023-04-24T23:50:54.494Z,99751.75
2023-04-24T23:53:51.134Z,99758.38
2023-04-24T23:56:43.061Z,99758.33
2023-04-24T23:59:32.866Z,99762.08
